Eagle River, AK (99577)

3:57 AM AKDT on July 30, 2016 (GMT -0800)
Chatanika Loop | | Change Station

Elev 590 ft 61.32 °N, 149.54 °W | Updated 7 minutes ago

Overcast
Overcast
57.5 °F
Feels Like 57.5 °F
N
0.0
Wind Variable Wind from ESE
Gusts 2.0 mph

Today
High -- | Low -- °F
--% Chance of Precip.
Yesterday
High -- | Low -- °F
Precip. -- in
Pressure 30.07 in
Visibility 10.0 miles
Clouds Mostly Cloudy 4800 ft
Overcast 5000 ft
Dew Point 51 °F
Humidity 78%
Rainfall 0.00 in
Snow Depth Not available.
5:26 AM 10:40 PM
Waning Crescent, 14% visible
METAR PAFR 301154Z AUTO 13003KT 10SM BKN048 OVC050 16/09 A3007 RMK AO1
Pressure 30.07 in
Visibility 10.0 miles
Clouds Mostly Cloudy 4800 ft
Overcast 5000 ft
Dew Point 51 °F
Humidity 78%
Rainfall 0.00 in
Snow Depth Not available.
5:26 AM 10:40 PM
Waning Crescent, 14% visible
METAR PAFR 301154Z AUTO 13003KT 10SM BKN048 OVC050 16/09 A3007 RMK AO1

10-Day Weather Forecast

Almanac

Astronomy

Jul. 30, 2016 Rise Set
Actual Time
Civil Twilight
Nautical Twilight
Astronomical Twilight
Moon
Length of Visible Light
Length of Day
Tomorrow will be .
, % of the Moon is Illuminated

Today's Extremes

State Highs State Lows

Community

WunderPhotos

Upload Photos

1,928,539 photos uploaded!

WunderBlog® & News

Nearby

Air Quality

  Air Quality AQ Index Pollutant
Not available.

Snow Depth

Station Depth Elevation

Earthquake Activity

City Distance Mag. Time & Date
Minimum magnitude displayed is 2.5.

Coastal Water Temperatures

Place Temperature

Stations

Nearby Weather Stations

Station Location Temp. Windchill Dew Point Humidity Wind Precip. Elev Updated Type
                   

Watches & Warnings

There are currently no watches in effect.